sensor_id;sensor_type;location;lat;lon;timestamp;P1;durP1;ratioP1;P2;durP2;ratioP2
11422;SDS011;5768;51.476;7.210;2024-02-16T00:00:19;2.72;;;1.42;;
11422;SDS011;5768;51.476;7.210;2024-02-16T00:05:22;2.35;;;1.40;;
11422;SDS011;5768;51.476;7.210;2024-02-16T00:10:24;2.13;;;1.40;;
11422;SDS011;5768;51.476;7.210;2024-02-16T00:15:27;2.05;;;1.30;;
11422;SDS011;5768;51.476;7.210;2024-02-16T00:20:30;2.33;;;1.55;;
11422;SDS011;5768;51.476;7.210;2024-02-16T00:25:33;2.67;;;1.50;;
11422;SDS011;5768;51.476;7.210;2024-02-16T00:30:35;3.60;;;1.45;;
11422;SDS011;5768;51.476;7.210;2024-02-16T00:35:39;2.28;;;1.50;;
11422;SDS011;5768;51.476;7.210;2024-02-16T00:40:41;2.25;;;1.48;;
11422;SDS011;5768;51.476;7.210;2024-02-16T00:45:44;1.98;;;1.50;;
11422;SDS011;5768;51.476;7.210;2024-02-16T00:50:48;3.05;;;1.65;;
11422;SDS011;5768;51.476;7.210;2024-02-16T00:55:50;1.95;;;1.60;;
11422;SDS011;5768;51.476;7.210;2024-02-16T01:00:53;2.97;;;1.80;;
11422;SDS011;5768;51.476;7.210;2024-02-16T01:05:56;2.90;;;1.60;;
11422;SDS011;5768;51.476;7.210;2024-02-16T01:10:58;3.38;;;1.45;;
11422;SDS011;5768;51.476;7.210;2024-02-16T01:16:02;1.58;;;1.48;;
11422;SDS011;5768;51.476;7.210;2024-02-16T01:21:06;2.35;;;1.58;;
11422;SDS011;5768;51.476;7.210;2024-02-16T01:26:09;2.13;;;1.50;;
11422;SDS011;5768;51.476;7.210;2024-02-16T01:31:11;2.42;;;1.63;;
11422;SDS011;5768;51.476;7.210;2024-02-16T01:36:15;2.58;;;1.60;;
11422;SDS011;5768;51.476;7.210;2024-02-16T01:41:17;2.28;;;1.60;;
11422;SDS011;5768;51.476;7.210;2024-02-16T01:46:19;3.03;;;1.70;;
11422;SDS011;5768;51.476;7.210;2024-02-16T01:51:24;3.13;;;1.80;;
11422;SDS011;5768;51.476;7.210;2024-02-16T01:56:27;3.13;;;1.58;;
11422;SDS011;5768;51.476;7.210;2024-02-16T02:01:30;2.30;;;1.52;;
11422;SDS011;5768;51.476;7.210;2024-02-16T02:06:33;2.85;;;1.98;;
11422;SDS011;5768;51.476;7.210;2024-02-16T02:11:36;1.77;;;1.50;;
11422;SDS011;5768;51.476;7.210;2024-02-16T02:16:38;2.90;;;1.60;;
11422;SDS011;5768;51.476;7.210;2024-02-16T02:21:42;2.58;;;1.27;;
11422;SDS011;5768;51.476;7.210;2024-02-16T02:26:45;2.60;;;1.55;;
11422;SDS011;5768;51.476;7.210;2024-02-16T02:31:48;1.80;;;1.50;;
11422;SDS011;5768;51.476;7.210;2024-02-16T02:36:50;3.38;;;1.60;;
11422;SDS011;5768;51.476;7.210;2024-02-16T02:41:53;2.05;;;1.48;;
11422;SDS011;5768;51.476;7.210;2024-02-16T02:46:55;1.65;;;1.27;;
11422;SDS011;5768;51.476;7.210;2024-02-16T02:51:57;2.58;;;1.40;;
11422;SDS011;5768;51.476;7.210;2024-02-16T02:57:01;2.75;;;1.65;;
11422;SDS011;5768;51.476;7.210;2024-02-16T03:02:03;2.58;;;1.55;;
11422;SDS011;5768;51.476;7.210;2024-02-16T03:07:05;1.95;;;1.42;;
11422;SDS011;5768;51.476;7.210;2024-02-16T03:12:09;2.95;;;1.63;;
11422;SDS011;5768;51.476;7.210;2024-02-16T03:17:11;2.72;;;1.73;;
11422;SDS011;5768;51.476;7.210;2024-02-16T03:22:13;2.00;;;1.35;;
11422;SDS011;5768;51.476;7.210;2024-02-16T03:27:17;2.75;;;1.70;;
11422;SDS011;5768;51.476;7.210;2024-02-16T03:32:20;3.42;;;2.13;;
11422;SDS011;5768;51.476;7.210;2024-02-16T03:37:22;2.75;;;1.83;;
11422;SDS011;5768;51.476;7.210;2024-02-16T03:42:25;3.30;;;1.90;;
11422;SDS011;5768;51.476;7.210;2024-02-16T03:47:27;2.63;;;2.08;;
11422;SDS011;5768;51.476;7.210;2024-02-16T03:52:30;1.98;;;1.65;;
11422;SDS011;5768;51.476;7.210;2024-02-16T03:57:33;2.25;;;2.00;;
11422;SDS011;5768;51.476;7.210;2024-02-16T04:02:35;4.13;;;2.05;;
11422;SDS011;5768;51.476;7.210;2024-02-16T04:07:37;3.03;;;1.85;;
11422;SDS011;5768;51.476;7.210;2024-02-16T04:12:42;3.58;;;1.60;;
11422;SDS011;5768;51.476;7.210;2024-02-16T04:17:45;3.65;;;1.70;;
11422;SDS011;5768;51.476;7.210;2024-02-16T04:22:48;3.47;;;1.83;;
11422;SDS011;5768;51.476;7.210;2024-02-16T04:27:51;2.38;;;1.80;;
11422;SDS011;5768;51.476;7.210;2024-02-16T04:32:54;2.00;;;1.65;;
11422;SDS011;5768;51.476;7.210;2024-02-16T04:37:56;2.33;;;1.80;;
11422;SDS011;5768;51.476;7.210;2024-02-16T04:42:59;2.60;;;1.73;;
11422;SDS011;5768;51.476;7.210;2024-02-16T04:48:02;2.65;;;1.80;;
11422;SDS011;5768;51.476;7.210;2024-02-16T04:53:05;1.65;;;1.55;;
11422;SDS011;5768;51.476;7.210;2024-02-16T04:58:09;1.63;;;1.40;;
11422;SDS011;5768;51.476;7.210;2024-02-16T05:03:11;2.38;;;1.70;;
11422;SDS011;5768;51.476;7.210;2024-02-16T05:08:13;2.17;;;1.60;;
11422;SDS011;5768;51.476;7.210;2024-02-16T05:13:17;2.63;;;1.60;;
11422;SDS011;5768;51.476;7.210;2024-02-16T05:18:21;2.30;;;1.55;;
11422;SDS011;5768;51.476;7.210;2024-02-16T05:23:23;2.38;;;1.80;;
11422;SDS011;5768;51.476;7.210;2024-02-16T05:28:26;3.08;;;1.60;;
11422;SDS011;5768;51.476;7.210;2024-02-16T05:33:29;2.22;;;1.60;;
11422;SDS011;5768;51.476;7.210;2024-02-16T05:38:31;2.50;;;1.80;;
11422;SDS011;5768;51.476;7.210;2024-02-16T05:43:43;2.83;;;1.50;;
11422;SDS011;5768;51.476;7.210;2024-02-16T05:48:45;2.42;;;1.45;;
11422;SDS011;5768;51.476;7.210;2024-02-16T05:53:48;4.03;;;1.58;;
11422;SDS011;5768;51.476;7.210;2024-02-16T05:58:53;5.93;;;1.83;;
11422;SDS011;5768;51.476;7.210;2024-02-16T06:03:55;2.47;;;1.65;;
11422;SDS011;5768;51.476;7.210;2024-02-16T06:08:57;2.47;;;1.80;;
11422;SDS011;5768;51.476;7.210;2024-02-16T06:14:01;4.65;;;1.83;;
11422;SDS011;5768;51.476;7.210;2024-02-16T06:19:03;2.78;;;1.92;;
11422;SDS011;5768;51.476;7.210;2024-02-16T06:24:07;2.42;;;1.80;;
11422;SDS011;5768;51.476;7.210;2024-02-16T06:29:11;2.90;;;2.10;;
11422;SDS011;5768;51.476;7.210;2024-02-16T06:34:14;2.83;;;1.73;;
11422;SDS011;5768;51.476;7.210;2024-02-16T06:39:16;4.60;;;2.03;;
11422;SDS011;5768;51.476;7.210;2024-02-16T06:44:21;3.13;;;1.88;;
11422;SDS011;5768;51.476;7.210;2024-02-16T06:49:23;3.33;;;2.00;;
11422;SDS011;5768;51.476;7.210;2024-02-16T06:54:25;4.18;;;2.67;;
11422;SDS011;5768;51.476;7.210;2024-02-16T06:59:29;4.53;;;1.88;;
11422;SDS011;5768;51.476;7.210;2024-02-16T07:04:31;3.90;;;2.08;;
11422;SDS011;5768;51.476;7.210;2024-02-16T07:09:34;4.55;;;2.10;;
11422;SDS011;5768;51.476;7.210;2024-02-16T07:14:38;3.35;;;2.05;;
11422;SDS011;5768;51.476;7.210;2024-02-16T07:19:40;2.88;;;2.10;;
11422;SDS011;5768;51.476;7.210;2024-02-16T07:29:47;4.53;;;2.67;;
11422;SDS011;5768;51.476;7.210;2024-02-16T07:34:49;2.72;;;2.05;;
11422;SDS011;5768;51.476;7.210;2024-02-16T07:39:51;2.42;;;2.03;;
11422;SDS011;5768;51.476;7.210;2024-02-16T07:44:55;4.30;;;2.00;;
11422;SDS011;5768;51.476;7.210;2024-02-16T07:49:57;3.30;;;2.20;;
11422;SDS011;5768;51.476;7.210;2024-02-16T07:55:00;3.83;;;2.00;;
11422;SDS011;5768;51.476;7.210;2024-02-16T08:00:04;3.33;;;2.10;;
11422;SDS011;5768;51.476;7.210;2024-02-16T08:05:08;4.55;;;2.47;;
11422;SDS011;5768;51.476;7.210;2024-02-16T08:10:10;3.45;;;1.85;;
11422;SDS011;5768;51.476;7.210;2024-02-16T08:15:14;2.85;;;1.80;;
11422;SDS011;5768;51.476;7.210;2024-02-16T08:20:22;1.92;;;1.73;;
11422;SDS011;5768;51.476;7.210;2024-02-16T08:25:24;3.53;;;1.95;;
11422;SDS011;5768;51.476;7.210;2024-02-16T08:30:29;1.95;;;1.67;;
11422;SDS011;5768;51.476;7.210;2024-02-16T08:35:31;3.15;;;1.88;;
11422;SDS011;5768;51.476;7.210;2024-02-16T08:40:33;3.05;;;2.00;;
11422;SDS011;5768;51.476;7.210;2024-02-16T08:45:36;3.65;;;2.13;;
11422;SDS011;5768;51.476;7.210;2024-02-16T08:50:38;4.13;;;2.00;;
11422;SDS011;5768;51.476;7.210;2024-02-16T08:55:41;4.82;;;2.17;;
11422;SDS011;5768;51.476;7.210;2024-02-16T09:00:45;3.70;;;1.85;;
11422;SDS011;5768;51.476;7.210;2024-02-16T09:05:49;3.30;;;2.05;;
11422;SDS011;5768;51.476;7.210;2024-02-16T09:10:51;2.63;;;2.05;;
11422;SDS011;5768;51.476;7.210;2024-02-16T09:15:54;3.70;;;1.90;;
11422;SDS011;5768;51.476;7.210;2024-02-16T09:20:57;4.18;;;2.45;;
11422;SDS011;5768;51.476;7.210;2024-02-16T09:25:59;4.40;;;2.35;;
11422;SDS011;5768;51.476;7.210;2024-02-16T09:31:03;3.90;;;2.28;;
11422;SDS011;5768;51.476;7.210;2024-02-16T09:36:06;3.67;;;2.10;;
11422;SDS011;5768;51.476;7.210;2024-02-16T09:41:09;2.75;;;2.20;;
11422;SDS011;5768;51.476;7.210;2024-02-16T09:46:13;7.20;;;2.47;;
11422;SDS011;5768;51.476;7.210;2024-02-16T09:51:19;2.72;;;2.33;;
11422;SDS011;5768;51.476;7.210;2024-02-16T09:56:21;4.43;;;2.22;;
11422;SDS011;5768;51.476;7.210;2024-02-16T10:01:26;6.80;;;2.28;;
11422;SDS011;5768;51.476;7.210;2024-02-16T10:06:30;4.57;;;2.20;;
11422;SDS011;5768;51.476;7.210;2024-02-16T10:11:32;4.07;;;2.30;;
11422;SDS011;5768;51.476;7.210;2024-02-16T10:16:40;4.60;;;2.45;;
11422;SDS011;5768;51.476;7.210;2024-02-16T10:21:42;4.22;;;2.30;;
11422;SDS011;5768;51.476;7.210;2024-02-16T10:26:44;7.65;;;3.10;;
11422;SDS011;5768;51.476;7.210;2024-02-16T10:31:47;3.70;;;2.80;;
11422;SDS011;5768;51.476;7.210;2024-02-16T10:36:51;6.80;;;2.67;;
11422;SDS011;5768;51.476;7.210;2024-02-16T10:41:54;5.40;;;2.33;;
11422;SDS011;5768;51.476;7.210;2024-02-16T10:47:02;3.92;;;2.50;;
11422;SDS011;5768;51.476;7.210;2024-02-16T10:52:05;7.03;;;2.70;;
11422;SDS011;5768;51.476;7.210;2024-02-16T10:57:09;5.18;;;2.70;;
11422;SDS011;5768;51.476;7.210;2024-02-16T11:02:12;4.25;;;2.40;;
11422;SDS011;5768;51.476;7.210;2024-02-16T11:07:15;5.63;;;2.72;;
11422;SDS011;5768;51.476;7.210;2024-02-16T11:12:19;4.22;;;2.88;;
11422;SDS011;5768;51.476;7.210;2024-02-16T11:17:23;4.75;;;2.35;;
11422;SDS011;5768;51.476;7.210;2024-02-16T11:22:28;5.97;;;2.58;;
11422;SDS011;5768;51.476;7.210;2024-02-16T11:27:31;5.32;;;2.75;;
11422;SDS011;5768;51.476;7.210;2024-02-16T11:32:35;8.00;;;2.70;;
11422;SDS011;5768;51.476;7.210;2024-02-16T11:37:38;6.60;;;2.83;;
11422;SDS011;5768;51.476;7.210;2024-02-16T11:42:40;5.63;;;2.88;;
11422;SDS011;5768;51.476;7.210;2024-02-16T11:47:45;3.67;;;2.85;;
11422;SDS011;5768;51.476;7.210;2024-02-16T11:52:47;5.22;;;2.50;;
11422;SDS011;5768;51.476;7.210;2024-02-16T11:57:49;6.10;;;2.45;;
11422;SDS011;5768;51.476;7.210;2024-02-16T12:02:59;3.83;;;2.85;;
11422;SDS011;5768;51.476;7.210;2024-02-16T12:08:02;9.80;;;3.15;;
11422;SDS011;5768;51.476;7.210;2024-02-16T12:13:07;4.35;;;2.33;;
11422;SDS011;5768;51.476;7.210;2024-02-16T12:18:19;7.47;;;3.08;;
11422;SDS011;5768;51.476;7.210;2024-02-16T12:23:22;7.85;;;2.67;;
11422;SDS011;5768;51.476;7.210;2024-02-16T12:28:25;10.82;;;6.50;;
11422;SDS011;5768;51.476;7.210;2024-02-16T12:33:30;6.00;;;3.85;;
11422;SDS011;5768;51.476;7.210;2024-02-16T12:38:33;6.60;;;2.92;;
11422;SDS011;5768;51.476;7.210;2024-02-16T12:43:35;5.22;;;3.03;;
11422;SDS011;5768;51.476;7.210;2024-02-16T12:48:39;5.43;;;2.65;;
11422;SDS011;5768;51.476;7.210;2024-02-16T12:53:41;7.15;;;2.90;;
11422;SDS011;5768;51.476;7.210;2024-02-16T12:58:43;4.18;;;2.83;;
11422;SDS011;5768;51.476;7.210;2024-02-16T13:03:47;7.03;;;2.80;;
11422;SDS011;5768;51.476;7.210;2024-02-16T13:08:50;4.80;;;3.00;;
11422;SDS011;5768;51.476;7.210;2024-02-16T13:13:52;4.85;;;3.00;;
11422;SDS011;5768;51.476;7.210;2024-02-16T13:18:55;6.78;;;3.30;;
11422;SDS011;5768;51.476;7.210;2024-02-16T13:23:58;5.63;;;3.42;;
11422;SDS011;5768;51.476;7.210;2024-02-16T13:29:00;8.00;;;3.50;;
11422;SDS011;5768;51.476;7.210;2024-02-16T13:34:04;8.55;;;3.40;;
11422;SDS011;5768;51.476;7.210;2024-02-16T13:39:06;8.38;;;3.67;;
11422;SDS011;5768;51.476;7.210;2024-02-16T13:44:09;6.55;;;3.47;;
11422;SDS011;5768;51.476;7.210;2024-02-16T13:49:12;8.32;;;4.10;;
11422;SDS011;5768;51.476;7.210;2024-02-16T13:54:15;4.93;;;3.67;;
11422;SDS011;5768;51.476;7.210;2024-02-16T13:59:18;6.45;;;4.50;;
11422;SDS011;5768;51.476;7.210;2024-02-16T14:04:23;6.00;;;4.75;;
11422;SDS011;5768;51.476;7.210;2024-02-16T14:09:26;8.73;;;5.25;;
11422;SDS011;5768;51.476;7.210;2024-02-16T14:14:29;8.00;;;6.10;;
11422;SDS011;5768;51.476;7.210;2024-02-16T14:19:32;7.07;;;6.07;;
11422;SDS011;5768;51.476;7.210;2024-02-16T14:24:37;6.60;;;5.82;;
11422;SDS011;5768;51.476;7.210;2024-02-16T14:29:39;8.30;;;6.13;;
11422;SDS011;5768;51.476;7.210;2024-02-16T14:34:43;7.13;;;6.40;;
11422;SDS011;5768;51.476;7.210;2024-02-16T14:39:46;9.93;;;7.63;;
11422;SDS011;5768;51.476;7.210;2024-02-16T14:44:48;9.20;;;7.97;;
11422;SDS011;5768;51.476;7.210;2024-02-16T14:49:51;9.50;;;7.70;;
11422;SDS011;5768;51.476;7.210;2024-02-16T14:54:54;10.95;;;8.50;;
11422;SDS011;5768;51.476;7.210;2024-02-16T14:59:56;10.95;;;9.68;;
11422;SDS011;5768;51.476;7.210;2024-02-16T15:05:00;9.77;;;8.77;;
11422;SDS011;5768;51.476;7.210;2024-02-16T15:10:02;10.43;;;9.43;;
11422;SDS011;5768;51.476;7.210;2024-02-16T15:15:06;8.98;;;7.70;;
11422;SDS011;5768;51.476;7.210;2024-02-16T15:20:11;9.73;;;7.45;;
11422;SDS011;5768;51.476;7.210;2024-02-16T15:25:13;11.95;;;10.80;;
11422;SDS011;5768;51.476;7.210;2024-02-16T15:30:17;6.25;;;5.20;;
11422;SDS011;5768;51.476;7.210;2024-02-16T15:35:21;11.80;;;9.93;;
11422;SDS011;5768;51.476;7.210;2024-02-16T15:40:23;8.93;;;7.68;;
11422;SDS011;5768;51.476;7.210;2024-02-16T15:45:25;10.32;;;8.48;;
11422;SDS011;5768;51.476;7.210;2024-02-16T15:50:29;8.25;;;7.45;;
11422;SDS011;5768;51.476;7.210;2024-02-16T15:55:31;8.10;;;7.35;;
11422;SDS011;5768;51.476;7.210;2024-02-16T16:00:34;7.40;;;6.10;;
11422;SDS011;5768;51.476;7.210;2024-02-16T16:05:38;7.97;;;7.28;;
11422;SDS011;5768;51.476;7.210;2024-02-16T16:10:40;6.88;;;6.18;;
11422;SDS011;5768;51.476;7.210;2024-02-16T16:15:42;8.32;;;6.55;;
11422;SDS011;5768;51.476;7.210;2024-02-16T16:20:46;7.88;;;7.18;;
11422;SDS011;5768;51.476;7.210;2024-02-16T16:25:49;7.72;;;6.93;;
11422;SDS011;5768;51.476;7.210;2024-02-16T16:30:51;7.38;;;6.70;;
11422;SDS011;5768;51.476;7.210;2024-02-16T16:35:54;7.22;;;6.60;;
11422;SDS011;5768;51.476;7.210;2024-02-16T16:40:57;7.20;;;6.57;;
11422;SDS011;5768;51.476;7.210;2024-02-16T16:46:00;8.35;;;7.55;;
11422;SDS011;5768;51.476;7.210;2024-02-16T16:51:04;7.78;;;7.05;;
11422;SDS011;5768;51.476;7.210;2024-02-16T16:56:06;8.52;;;6.85;;
11422;SDS011;5768;51.476;7.210;2024-02-16T17:01:09;5.95;;;5.45;;
11422;SDS011;5768;51.476;7.210;2024-02-16T17:06:12;8.38;;;7.72;;
11422;SDS011;5768;51.476;7.210;2024-02-16T17:11:15;9.05;;;8.25;;
11422;SDS011;5768;51.476;7.210;2024-02-16T17:16:17;8.38;;;7.68;;
11422;SDS011;5768;51.476;7.210;2024-02-16T17:21:21;6.05;;;5.55;;
11422;SDS011;5768;51.476;7.210;2024-02-16T17:26:24;5.28;;;4.78;;
11422;SDS011;5768;51.476;7.210;2024-02-16T17:31:26;5.07;;;4.68;;
11422;SDS011;5768;51.476;7.210;2024-02-16T17:36:29;5.30;;;4.90;;
11422;SDS011;5768;51.476;7.210;2024-02-16T17:41:34;5.32;;;4.82;;
11422;SDS011;5768;51.476;7.210;2024-02-16T17:46:37;5.97;;;5.38;;
11422;SDS011;5768;51.476;7.210;2024-02-16T17:51:40;6.07;;;5.57;;
11422;SDS011;5768;51.476;7.210;2024-02-16T17:56:43;5.13;;;4.72;;
11422;SDS011;5768;51.476;7.210;2024-02-16T18:01:45;4.18;;;3.63;;
11422;SDS011;5768;51.476;7.210;2024-02-16T18:06:49;5.00;;;4.50;;
11422;SDS011;5768;51.476;7.210;2024-02-16T18:11:51;4.60;;;4.20;;
11422;SDS011;5768;51.476;7.210;2024-02-16T18:16:53;3.20;;;2.90;;
11422;SDS011;5768;51.476;7.210;2024-02-16T18:21:57;3.17;;;2.88;;
11422;SDS011;5768;51.476;7.210;2024-02-16T18:26:59;3.40;;;2.90;;
11422;SDS011;5768;51.476;7.210;2024-02-16T18:32:02;2.80;;;2.60;;
11422;SDS011;5768;51.476;7.210;2024-02-16T18:37:06;2.80;;;2.60;;
11422;SDS011;5768;51.476;7.210;2024-02-16T18:42:08;2.92;;;2.72;;
11422;SDS011;5768;51.476;7.210;2024-02-16T18:47:11;2.85;;;2.65;;
11422;SDS011;5768;51.476;7.210;2024-02-16T18:52:17;3.53;;;3.22;;
11422;SDS011;5768;51.476;7.210;2024-02-16T18:57:19;3.72;;;3.42;;
11422;SDS011;5768;51.476;7.210;2024-02-16T19:02:21;5.00;;;4.20;;
11422;SDS011;5768;51.476;7.210;2024-02-16T19:07:25;6.25;;;5.65;;
11422;SDS011;5768;51.476;7.210;2024-02-16T19:12:27;8.43;;;7.63;;
11422;SDS011;5768;51.476;7.210;2024-02-16T19:17:29;9.25;;;8.13;;
11422;SDS011;5768;51.476;7.210;2024-02-16T19:22:33;8.45;;;7.72;;
11422;SDS011;5768;51.476;7.210;2024-02-16T19:27:35;9.40;;;8.50;;
11422;SDS011;5768;51.476;7.210;2024-02-16T19:32:37;10.18;;;9.25;;
11422;SDS011;5768;51.476;7.210;2024-02-16T19:37:41;8.70;;;7.90;;
11422;SDS011;5768;51.476;7.210;2024-02-16T19:42:43;9.88;;;9.00;;
11422;SDS011;5768;51.476;7.210;2024-02-16T19:47:45;9.40;;;8.60;;
11422;SDS011;5768;51.476;7.210;2024-02-16T19:52:49;9.30;;;8.40;;
11422;SDS011;5768;51.476;7.210;2024-02-16T19:57:51;7.82;;;7.13;;
11422;SDS011;5768;51.476;7.210;2024-02-16T20:02:53;7.72;;;7.03;;
11422;SDS011;5768;51.476;7.210;2024-02-16T20:07:57;7.97;;;7.28;;
11422;SDS011;5768;51.476;7.210;2024-02-16T20:12:59;8.20;;;7.50;;
11422;SDS011;5768;51.476;7.210;2024-02-16T20:18:02;8.27;;;7.57;;
11422;SDS011;5768;51.476;7.210;2024-02-16T20:23:06;8.88;;;7.97;;
11422;SDS011;5768;51.476;7.210;2024-02-16T20:28:11;8.77;;;7.90;;
11422;SDS011;5768;51.476;7.210;2024-02-16T20:33:13;10.18;;;9.27;;
11422;SDS011;5768;51.476;7.210;2024-02-16T20:38:18;9.65;;;8.65;;
11422;SDS011;5768;51.476;7.210;2024-02-16T20:43:20;10.68;;;9.35;;
11422;SDS011;5768;51.476;7.210;2024-02-16T20:48:22;10.00;;;9.02;;
11422;SDS011;5768;51.476;7.210;2024-02-16T20:53:26;9.45;;;8.65;;
11422;SDS011;5768;51.476;7.210;2024-02-16T20:58:29;11.05;;;9.38;;
11422;SDS011;5768;51.476;7.210;2024-02-16T21:03:31;10.90;;;9.93;;
11422;SDS011;5768;51.476;7.210;2024-02-16T21:08:35;11.05;;;9.95;;
11422;SDS011;5768;51.476;7.210;2024-02-16T21:13:37;12.23;;;11.15;;
11422;SDS011;5768;51.476;7.210;2024-02-16T21:18:40;13.50;;;12.18;;
11422;SDS011;5768;51.476;7.210;2024-02-16T21:23:43;15.07;;;13.63;;
11422;SDS011;5768;51.476;7.210;2024-02-16T21:28:45;16.35;;;14.63;;
11422;SDS011;5768;51.476;7.210;2024-02-16T21:33:47;18.15;;;16.35;;
11422;SDS011;5768;51.476;7.210;2024-02-16T21:38:51;17.77;;;16.10;;
11422;SDS011;5768;51.476;7.210;2024-02-16T21:43:53;20.17;;;18.08;;
11422;SDS011;5768;51.476;7.210;2024-02-16T21:48:56;21.00;;;19.00;;
11422;SDS011;5768;51.476;7.210;2024-02-16T21:54:01;20.67;;;18.60;;
11422;SDS011;5768;51.476;7.210;2024-02-16T21:59:05;22.80;;;20.42;;
11422;SDS011;5768;51.476;7.210;2024-02-16T22:04:10;23.75;;;21.33;;
11422;SDS011;5768;51.476;7.210;2024-02-16T22:09:13;23.88;;;21.15;;
11422;SDS011;5768;51.476;7.210;2024-02-16T22:14:15;27.00;;;24.40;;
11422;SDS011;5768;51.476;7.210;2024-02-16T22:19:18;26.27;;;23.65;;
11422;SDS011;5768;51.476;7.210;2024-02-16T22:24:21;26.52;;;23.92;;
11422;SDS011;5768;51.476;7.210;2024-02-16T22:29:23;28.05;;;25.25;;
11422;SDS011;5768;51.476;7.210;2024-02-16T22:34:26;27.90;;;25.10;;
11422;SDS011;5768;51.476;7.210;2024-02-16T22:39:30;28.35;;;25.35;;
11422;SDS011;5768;51.476;7.210;2024-02-16T22:44:32;28.98;;;26.13;;
11422;SDS011;5768;51.476;7.210;2024-02-16T22:49:34;28.02;;;25.13;;
11422;SDS011;5768;51.476;7.210;2024-02-16T22:54:39;27.75;;;24.75;;
11422;SDS011;5768;51.476;7.210;2024-02-16T22:59:42;27.20;;;24.10;;
11422;SDS011;5768;51.476;7.210;2024-02-16T23:04:44;26.48;;;23.77;;
11422;SDS011;5768;51.476;7.210;2024-02-16T23:09:48;25.02;;;22.45;;
11422;SDS011;5768;51.476;7.210;2024-02-16T23:14:51;23.38;;;20.85;;
11422;SDS011;5768;51.476;7.210;2024-02-16T23:19:57;23.00;;;20.60;;
11422;SDS011;5768;51.476;7.210;2024-02-16T23:25:01;21.95;;;19.65;;
11422;SDS011;5768;51.476;7.210;2024-02-16T23:30:04;24.20;;;19.88;;
11422;SDS011;5768;51.476;7.210;2024-02-16T23:35:08;23.30;;;20.80;;
11422;SDS011;5768;51.476;7.210;2024-02-16T23:40:12;22.67;;;19.80;;
11422;SDS011;5768;51.476;7.210;2024-02-16T23:45:15;22.75;;;20.50;;
11422;SDS011;5768;51.476;7.210;2024-02-16T23:50:18;18.52;;;14.15;;
11422;SDS011;5768;51.476;7.210;2024-02-16T23:55:22;22.77;;;17.42;;
